sensor_id;sensor_type;location;lat;lon;timestamp;temperature;humidity
12704;DHT22;6416;52.182;7.650;2023-07-13T00:02:19;20.90;54.30
12704;DHT22;6416;52.182;7.650;2023-07-13T00:04:46;20.80;54.20
12704;DHT22;6416;52.182;7.650;2023-07-13T00:07:11;20.80;54.40
12704;DHT22;6416;52.182;7.650;2023-07-13T00:09:37;20.70;54.40
12704;DHT22;6416;52.182;7.650;2023-07-13T00:12:02;20.60;54.40
12704;DHT22;6416;52.182;7.650;2023-07-13T00:14:29;20.60;54.60
12704;DHT22;6416;52.182;7.650;2023-07-13T00:16:55;20.50;54.60
12704;DHT22;6416;52.182;7.650;2023-07-13T00:19:20;20.50;54.80
12704;DHT22;6416;52.182;7.650;2023-07-13T00:21:47;20.40;54.80
12704;DHT22;6416;52.182;7.650;2023-07-13T00:24:15;20.30;54.90
12704;DHT22;6416;52.182;7.650;2023-07-13T00:26:41;20.30;55.10
12704;DHT22;6416;52.182;7.650;2023-07-13T00:29:07;20.20;55.10
12704;DHT22;6416;52.182;7.650;2023-07-13T00:31:32;20.10;55.20
12704;DHT22;6416;52.182;7.650;2023-07-13T00:33:58;20.10;55.30
12704;DHT22;6416;52.182;7.650;2023-07-13T00:36:23;20.00;55.30
12704;DHT22;6416;52.182;7.650;2023-07-13T00:38:48;20.00;55.50
12704;DHT22;6416;52.182;7.650;2023-07-13T00:41:14;19.90;55.60
12704;DHT22;6416;52.182;7.650;2023-07-13T00:43:40;19.90;55.70
12704;DHT22;6416;52.182;7.650;2023-07-13T00:46:14;19.80;55.80
12704;DHT22;6416;52.182;7.650;2023-07-13T00:48:40;19.80;56.50
12704;DHT22;6416;52.182;7.650;2023-07-13T00:51:06;19.70;55.90
12704;DHT22;6416;52.182;7.650;2023-07-13T00:53:32;19.70;56.10
12704;DHT22;6416;52.182;7.650;2023-07-13T00:55:59;19.60;56.10
12704;DHT22;6416;52.182;7.650;2023-07-13T00:58:26;19.60;56.20
12704;DHT22;6416;52.182;7.650;2023-07-13T01:00:53;19.50;56.30
12704;DHT22;6416;52.182;7.650;2023-07-13T01:03:19;19.50;56.30
12704;DHT22;6416;52.182;7.650;2023-07-13T01:05:47;19.50;56.40
12704;DHT22;6416;52.182;7.650;2023-07-13T01:08:13;19.40;56.70
12704;DHT22;6416;52.182;7.650;2023-07-13T01:10:39;19.40;56.50
12704;DHT22;6416;52.182;7.650;2023-07-13T01:13:10;19.30;56.60
12704;DHT22;6416;52.182;7.650;2023-07-13T01:15:45;19.30;57.10
12704;DHT22;6416;52.182;7.650;2023-07-13T01:18:14;19.30;57.40
12704;DHT22;6416;52.182;7.650;2023-07-13T01:20:41;19.20;56.80
12704;DHT22;6416;52.182;7.650;2023-07-13T01:23:09;19.20;56.70
12704;DHT22;6416;52.182;7.650;2023-07-13T01:25:37;19.10;56.90
12704;DHT22;6416;52.182;7.650;2023-07-13T01:28:04;19.00;57.00
12704;DHT22;6416;52.182;7.650;2023-07-13T01:30:29;19.10;57.10
12704;DHT22;6416;52.182;7.650;2023-07-13T01:32:55;19.00;57.10
12704;DHT22;6416;52.182;7.650;2023-07-13T01:35:21;18.90;57.20
12704;DHT22;6416;52.182;7.650;2023-07-13T01:37:46;18.90;57.40
12704;DHT22;6416;52.182;7.650;2023-07-13T01:40:12;18.80;57.40
12704;DHT22;6416;52.182;7.650;2023-07-13T01:42:38;18.80;57.50
12704;DHT22;6416;52.182;7.650;2023-07-13T01:45:04;18.80;57.50
12704;DHT22;6416;52.182;7.650;2023-07-13T01:47:30;18.80;57.60
12704;DHT22;6416;52.182;7.650;2023-07-13T01:49:56;18.80;57.70
12704;DHT22;6416;52.182;7.650;2023-07-13T01:52:22;18.70;57.70
12704;DHT22;6416;52.182;7.650;2023-07-13T01:54:48;18.70;57.90
12704;DHT22;6416;52.182;7.650;2023-07-13T01:57:13;18.70;57.90
12704;DHT22;6416;52.182;7.650;2023-07-13T01:59:39;18.70;57.90
12704;DHT22;6416;52.182;7.650;2023-07-13T02:02:04;18.70;58.00
12704;DHT22;6416;52.182;7.650;2023-07-13T02:04:30;18.70;58.10
12704;DHT22;6416;52.182;7.650;2023-07-13T02:06:55;18.70;58.30
12704;DHT22;6416;52.182;7.650;2023-07-13T02:09:21;18.70;58.30
12704;DHT22;6416;52.182;7.650;2023-07-13T02:11:46;18.70;58.40
12704;DHT22;6416;52.182;7.650;2023-07-13T02:14:12;18.70;58.40
12704;DHT22;6416;52.182;7.650;2023-07-13T02:16:37;18.70;58.40
12704;DHT22;6416;52.182;7.650;2023-07-13T02:19:03;18.70;58.50
12704;DHT22;6416;52.182;7.650;2023-07-13T02:21:28;18.70;58.60
12704;DHT22;6416;52.182;7.650;2023-07-13T02:23:54;18.70;58.60
12704;DHT22;6416;52.182;7.650;2023-07-13T02:26:20;18.70;58.70
12704;DHT22;6416;52.182;7.650;2023-07-13T02:28:45;18.70;58.80
12704;DHT22;6416;52.182;7.650;2023-07-13T02:31:13;18.70;58.80
12704;DHT22;6416;52.182;7.650;2023-07-13T02:33:39;18.70;58.80
12704;DHT22;6416;52.182;7.650;2023-07-13T02:36:05;18.70;58.80
12704;DHT22;6416;52.182;7.650;2023-07-13T02:38:32;18.70;58.90
12704;DHT22;6416;52.182;7.650;2023-07-13T02:40:57;18.70;58.90
12704;DHT22;6416;52.182;7.650;2023-07-13T02:43:23;18.70;58.80
12704;DHT22;6416;52.182;7.650;2023-07-13T02:45:48;18.70;58.80
12704;DHT22;6416;52.182;7.650;2023-07-13T02:48:14;18.70;58.90
12704;DHT22;6416;52.182;7.650;2023-07-13T02:50:39;18.70;58.90
12704;DHT22;6416;52.182;7.650;2023-07-13T02:53:05;18.70;58.90
12704;DHT22;6416;52.182;7.650;2023-07-13T02:55:30;18.70;59.00
12704;DHT22;6416;52.182;7.650;2023-07-13T02:57:56;18.60;58.90
12704;DHT22;6416;52.182;7.650;2023-07-13T03:00:22;18.60;59.00
12704;DHT22;6416;52.182;7.650;2023-07-13T03:02:47;18.60;59.00
12704;DHT22;6416;52.182;7.650;2023-07-13T03:05:13;18.60;59.00
12704;DHT22;6416;52.182;7.650;2023-07-13T03:07:39;18.60;59.10
12704;DHT22;6416;52.182;7.650;2023-07-13T03:10:05;18.50;59.00
12704;DHT22;6416;52.182;7.650;2023-07-13T03:12:30;18.50;59.10
12704;DHT22;6416;52.182;7.650;2023-07-13T03:14:57;18.50;59.10
12704;DHT22;6416;52.182;7.650;2023-07-13T03:17:22;18.40;59.10
12704;DHT22;6416;52.182;7.650;2023-07-13T03:19:48;18.40;59.20
12704;DHT22;6416;52.182;7.650;2023-07-13T03:22:13;18.40;59.20
12704;DHT22;6416;52.182;7.650;2023-07-13T03:24:39;18.40;59.30
12704;DHT22;6416;52.182;7.650;2023-07-13T03:27:05;18.40;59.30
12704;DHT22;6416;52.182;7.650;2023-07-13T03:29:31;18.30;59.30
12704;DHT22;6416;52.182;7.650;2023-07-13T03:31:56;18.30;59.40
12704;DHT22;6416;52.182;7.650;2023-07-13T03:34:22;18.30;59.40
12704;DHT22;6416;52.182;7.650;2023-07-13T03:36:47;18.30;59.40
12704;DHT22;6416;52.182;7.650;2023-07-13T03:39:13;18.30;60.20
12704;DHT22;6416;52.182;7.650;2023-07-13T03:41:38;18.30;59.50
12704;DHT22;6416;52.182;7.650;2023-07-13T03:44:04;18.20;59.50
12704;DHT22;6416;52.182;7.650;2023-07-13T03:46:29;18.30;59.70
12704;DHT22;6416;52.182;7.650;2023-07-13T03:48:55;18.30;59.70
12704;DHT22;6416;52.182;7.650;2023-07-13T03:51:20;18.20;59.80
12704;DHT22;6416;52.182;7.650;2023-07-13T03:53:47;18.20;59.80
12704;DHT22;6416;52.182;7.650;2023-07-13T03:56:13;18.20;60.00
12704;DHT22;6416;52.182;7.650;2023-07-13T03:58:40;18.20;60.00
12704;DHT22;6416;52.182;7.650;2023-07-13T04:01:09;18.20;60.10
12704;DHT22;6416;52.182;7.650;2023-07-13T04:03:36;18.20;60.20
12704;DHT22;6416;52.182;7.650;2023-07-13T04:06:07;18.20;60.20
12704;DHT22;6416;52.182;7.650;2023-07-13T04:08:36;18.20;60.60
12704;DHT22;6416;52.182;7.650;2023-07-13T04:11:03;18.20;60.50
12704;DHT22;6416;52.182;7.650;2023-07-13T04:13:29;18.20;60.40
12704;DHT22;6416;52.182;7.650;2023-07-13T04:15:55;18.30;60.50
12704;DHT22;6416;52.182;7.650;2023-07-13T04:18:21;18.30;60.60
12704;DHT22;6416;52.182;7.650;2023-07-13T04:20:47;18.30;60.70
12704;DHT22;6416;52.182;7.650;2023-07-13T04:23:13;18.30;60.80
12704;DHT22;6416;52.182;7.650;2023-07-13T04:25:39;18.30;60.90
12704;DHT22;6416;52.182;7.650;2023-07-13T04:28:06;18.40;62.00
12704;DHT22;6416;52.182;7.650;2023-07-13T04:30:31;18.50;61.20
12704;DHT22;6416;52.182;7.650;2023-07-13T04:32:57;18.50;61.20
12704;DHT22;6416;52.182;7.650;2023-07-13T04:35:22;18.60;61.30
12704;DHT22;6416;52.182;7.650;2023-07-13T04:37:49;18.60;61.20
12704;DHT22;6416;52.182;7.650;2023-07-13T04:40:14;18.70;61.40
12704;DHT22;6416;52.182;7.650;2023-07-13T04:42:40;18.80;61.50
12704;DHT22;6416;52.182;7.650;2023-07-13T04:45:07;18.80;61.40
12704;DHT22;6416;52.182;7.650;2023-07-13T04:47:32;18.90;61.40
12704;DHT22;6416;52.182;7.650;2023-07-13T04:49:58;19.00;61.40
12704;DHT22;6416;52.182;7.650;2023-07-13T04:52:24;19.10;61.50
12704;DHT22;6416;52.182;7.650;2023-07-13T04:54:49;19.20;61.30
12704;DHT22;6416;52.182;7.650;2023-07-13T04:57:15;19.20;61.00
12704;DHT22;6416;52.182;7.650;2023-07-13T04:59:40;19.30;60.90
12704;DHT22;6416;52.182;7.650;2023-07-13T05:02:06;19.30;60.80
12704;DHT22;6416;52.182;7.650;2023-07-13T05:04:32;19.40;60.90
12704;DHT22;6416;52.182;7.650;2023-07-13T05:06:58;19.40;61.00
12704;DHT22;6416;52.182;7.650;2023-07-13T05:09:24;19.40;60.90
12704;DHT22;6416;52.182;7.650;2023-07-13T05:11:49;19.50;60.90
12704;DHT22;6416;52.182;7.650;2023-07-13T05:14:15;19.50;60.90
12704;DHT22;6416;52.182;7.650;2023-07-13T05:16:40;19.60;61.00
12704;DHT22;6416;52.182;7.650;2023-07-13T05:19:06;19.60;61.00
12704;DHT22;6416;52.182;7.650;2023-07-13T05:21:31;19.60;61.00
12704;DHT22;6416;52.182;7.650;2023-07-13T05:23:56;19.70;61.10
12704;DHT22;6416;52.182;7.650;2023-07-13T05:26:22;19.70;61.10
12704;DHT22;6416;52.182;7.650;2023-07-13T05:28:47;19.70;61.00
12704;DHT22;6416;52.182;7.650;2023-07-13T05:31:13;19.80;61.00
12704;DHT22;6416;52.182;7.650;2023-07-13T05:33:39;19.80;60.90
12704;DHT22;6416;52.182;7.650;2023-07-13T05:36:05;19.80;60.80
12704;DHT22;6416;52.182;7.650;2023-07-13T05:38:30;19.80;60.70
12704;DHT22;6416;52.182;7.650;2023-07-13T05:40:58;19.70;60.60
12704;DHT22;6416;52.182;7.650;2023-07-13T05:43:24;19.70;60.80
12704;DHT22;6416;52.182;7.650;2023-07-13T05:45:56;19.80;61.60
12704;DHT22;6416;52.182;7.650;2023-07-13T05:48:25;20.00;62.70
12704;DHT22;6416;52.182;7.650;2023-07-13T05:50:50;20.20;63.00
12704;DHT22;6416;52.182;7.650;2023-07-13T05:53:16;20.50;63.30
12704;DHT22;6416;52.182;7.650;2023-07-13T05:55:46;20.80;63.30
12704;DHT22;6416;52.182;7.650;2023-07-13T05:58:11;21.20;63.30
12704;DHT22;6416;52.182;7.650;2023-07-13T06:00:37;21.50;62.70
12704;DHT22;6416;52.182;7.650;2023-07-13T06:03:02;21.60;61.80
12704;DHT22;6416;52.182;7.650;2023-07-13T06:05:28;22.00;61.70
12704;DHT22;6416;52.182;7.650;2023-07-13T06:07:53;22.30;61.40
12704;DHT22;6416;52.182;7.650;2023-07-13T06:10:19;22.50;60.70
12704;DHT22;6416;52.182;7.650;2023-07-13T06:12:44;22.70;60.80
12704;DHT22;6416;52.182;7.650;2023-07-13T06:15:10;22.90;60.70
12704;DHT22;6416;52.182;7.650;2023-07-13T06:17:35;23.20;60.90
12704;DHT22;6416;52.182;7.650;2023-07-13T06:20:02;23.50;60.90
12704;DHT22;6416;52.182;7.650;2023-07-13T06:22:27;23.80;60.60
12704;DHT22;6416;52.182;7.650;2023-07-13T06:24:53;24.00;59.90
12704;DHT22;6416;52.182;7.650;2023-07-13T06:27:18;24.30;59.20
12704;DHT22;6416;52.182;7.650;2023-07-13T06:29:44;24.60;59.10
12704;DHT22;6416;52.182;7.650;2023-07-13T06:32:09;24.80;58.80
12704;DHT22;6416;52.182;7.650;2023-07-13T06:34:35;25.00;58.70
12704;DHT22;6416;52.182;7.650;2023-07-13T06:37:00;25.30;58.30
12704;DHT22;6416;52.182;7.650;2023-07-13T06:39:26;25.50;57.80
12704;DHT22;6416;52.182;7.650;2023-07-13T06:41:51;25.80;57.60
12704;DHT22;6416;52.182;7.650;2023-07-13T06:44:17;26.00;57.40
12704;DHT22;6416;52.182;7.650;2023-07-13T06:46:42;26.30;57.20
12704;DHT22;6416;52.182;7.650;2023-07-13T06:49:09;26.50;56.50
12704;DHT22;6416;52.182;7.650;2023-07-13T06:51:34;26.70;56.20
12704;DHT22;6416;52.182;7.650;2023-07-13T06:53:59;26.90;55.60
12704;DHT22;6416;52.182;7.650;2023-07-13T06:56:25;27.20;55.20
12704;DHT22;6416;52.182;7.650;2023-07-13T06:58:50;27.40;55.00
12704;DHT22;6416;52.182;7.650;2023-07-13T07:01:16;27.60;54.60
12704;DHT22;6416;52.182;7.650;2023-07-13T07:03:41;27.80;54.70
12704;DHT22;6416;52.182;7.650;2023-07-13T07:06:18;28.00;53.60
12704;DHT22;6416;52.182;7.650;2023-07-13T07:08:44;28.20;53.00
12704;DHT22;6416;52.182;7.650;2023-07-13T07:11:13;28.40;52.90
12704;DHT22;6416;52.182;7.650;2023-07-13T07:13:39;28.50;51.80
12704;DHT22;6416;52.182;7.650;2023-07-13T07:16:04;28.60;51.30
12704;DHT22;6416;52.182;7.650;2023-07-13T07:18:30;28.70;50.80
12704;DHT22;6416;52.182;7.650;2023-07-13T07:20:55;28.80;49.90
12704;DHT22;6416;52.182;7.650;2023-07-13T07:23:21;28.60;49.60
12704;DHT22;6416;52.182;7.650;2023-07-13T07:25:47;28.60;49.50
12704;DHT22;6416;52.182;7.650;2023-07-13T07:28:15;28.50;49.80
12704;DHT22;6416;52.182;7.650;2023-07-13T07:30:45;28.50;50.10
12704;DHT22;6416;52.182;7.650;2023-07-13T07:33:11;28.60;50.50
12704;DHT22;6416;52.182;7.650;2023-07-13T07:35:36;28.70;51.00
12704;DHT22;6416;52.182;7.650;2023-07-13T07:38:02;29.00;51.70
12704;DHT22;6416;52.182;7.650;2023-07-13T07:40:28;29.30;51.40
12704;DHT22;6416;52.182;7.650;2023-07-13T07:42:53;29.70;51.00
12704;DHT22;6416;52.182;7.650;2023-07-13T07:45:20;29.90;50.20
12704;DHT22;6416;52.182;7.650;2023-07-13T07:47:45;30.20;49.80
12704;DHT22;6416;52.182;7.650;2023-07-13T07:50:11;30.50;49.30
12704;DHT22;6416;52.182;7.650;2023-07-13T07:52:37;30.80;48.90
12704;DHT22;6416;52.182;7.650;2023-07-13T07:55:04;31.00;48.10
12704;DHT22;6416;52.182;7.650;2023-07-13T07:57:29;31.20;47.50
12704;DHT22;6416;52.182;7.650;2023-07-13T07:59:55;31.20;46.70
12704;DHT22;6416;52.182;7.650;2023-07-13T08:02:20;31.20;46.00
12704;DHT22;6416;52.182;7.650;2023-07-13T08:04:46;31.10;46.00
12704;DHT22;6416;52.182;7.650;2023-07-13T08:07:11;31.00;45.90
12704;DHT22;6416;52.182;7.650;2023-07-13T08:09:39;30.90;46.50
12704;DHT22;6416;52.182;7.650;2023-07-13T08:12:05;30.80;45.60
12704;DHT22;6416;52.182;7.650;2023-07-13T08:14:31;30.70;46.00
12704;DHT22;6416;52.182;7.650;2023-07-13T08:16:56;30.80;46.30
12704;DHT22;6416;52.182;7.650;2023-07-13T08:19:22;30.90;46.90
12704;DHT22;6416;52.182;7.650;2023-07-13T08:21:47;31.10;46.80
12704;DHT22;6416;52.182;7.650;2023-07-13T08:24:13;31.40;47.10
12704;DHT22;6416;52.182;7.650;2023-07-13T08:26:38;31.60;46.70
12704;DHT22;6416;52.182;7.650;2023-07-13T08:29:03;31.90;46.40
12704;DHT22;6416;52.182;7.650;2023-07-13T08:31:29;32.20;45.80
12704;DHT22;6416;52.182;7.650;2023-07-13T08:33:54;32.40;45.60
12704;DHT22;6416;52.182;7.650;2023-07-13T08:36:20;32.60;44.00
12704;DHT22;6416;52.182;7.650;2023-07-13T08:38:45;32.70;43.90
12704;DHT22;6416;52.182;7.650;2023-07-13T08:41:17;32.70;44.20
12704;DHT22;6416;52.182;7.650;2023-07-13T08:43:46;32.80;42.60
12704;DHT22;6416;52.182;7.650;2023-07-13T08:46:30;32.90;43.10
12704;DHT22;6416;52.182;7.650;2023-07-13T08:49:13;33.00;43.40
12704;DHT22;6416;52.182;7.650;2023-07-13T08:54:50;33.30;43.70
12704;DHT22;6416;52.182;7.650;2023-07-13T08:57:21;33.60;42.30
12704;DHT22;6416;52.182;7.650;2023-07-13T08:59:47;33.70;42.00
12704;DHT22;6416;52.182;7.650;2023-07-13T09:10:32;33.80;41.20
12704;DHT22;6416;52.182;7.650;2023-07-13T09:15:37;33.90;41.30
12704;DHT22;6416;52.182;7.650;2023-07-13T09:18:10;33.90;41.30
12704;DHT22;6416;52.182;7.650;2023-07-13T09:20:48;34.00;40.20
12704;DHT22;6416;52.182;7.650;2023-07-13T09:23:17;34.10;40.00
12704;DHT22;6416;52.182;7.650;2023-07-13T09:25:46;34.20;40.30
12704;DHT22;6416;52.182;7.650;2023-07-13T09:28:16;34.30;40.10
12704;DHT22;6416;52.182;7.650;2023-07-13T09:33:35;34.70;41.30
12704;DHT22;6416;52.182;7.650;2023-07-13T09:36:01;34.80;40.20
12704;DHT22;6416;52.182;7.650;2023-07-13T09:38:34;34.90;40.10
12704;DHT22;6416;52.182;7.650;2023-07-13T09:41:18;35.10;40.00
12704;DHT22;6416;52.182;7.650;2023-07-13T09:46:32;35.50;38.90
12704;DHT22;6416;52.182;7.650;2023-07-13T09:48:57;35.80;38.60
12704;DHT22;6416;52.182;7.650;2023-07-13T09:51:23;35.90;38.40
12704;DHT22;6416;52.182;7.650;2023-07-13T09:53:49;36.10;38.30
12704;DHT22;6416;52.182;7.650;2023-07-13T09:56:27;36.00;37.10
12704;DHT22;6416;52.182;7.650;2023-07-13T09:58:53;35.90;36.80
12704;DHT22;6416;52.182;7.650;2023-07-13T10:01:35;35.80;37.20
12704;DHT22;6416;52.182;7.650;2023-07-13T10:04:01;35.70;36.80
12704;DHT22;6416;52.182;7.650;2023-07-13T10:06:26;35.60;37.20
12704;DHT22;6416;52.182;7.650;2023-07-13T10:08:53;35.50;37.20
12704;DHT22;6416;52.182;7.650;2023-07-13T10:11:23;35.50;37.40
12704;DHT22;6416;52.182;7.650;2023-07-13T10:13:58;35.50;37.40
12704;DHT22;6416;52.182;7.650;2023-07-13T10:16:26;35.50;36.60
12704;DHT22;6416;52.182;7.650;2023-07-13T10:18:56;35.60;36.80
12704;DHT22;6416;52.182;7.650;2023-07-13T10:21:28;35.60;36.90
12704;DHT22;6416;52.182;7.650;2023-07-13T10:24:16;35.70;36.60
12704;DHT22;6416;52.182;7.650;2023-07-13T10:26:52;35.70;36.90
12704;DHT22;6416;52.182;7.650;2023-07-13T10:29:20;35.70;36.60
12704;DHT22;6416;52.182;7.650;2023-07-13T10:31:47;35.70;36.90
12704;DHT22;6416;52.182;7.650;2023-07-13T10:34:13;35.90;36.70
12704;DHT22;6416;52.182;7.650;2023-07-13T10:36:48;36.10;36.40
12704;DHT22;6416;52.182;7.650;2023-07-13T10:39:24;36.20;35.40
12704;DHT22;6416;52.182;7.650;2023-07-13T10:41:57;36.40;35.60
12704;DHT22;6416;52.182;7.650;2023-07-13T10:44:29;36.40;35.40
12704;DHT22;6416;52.182;7.650;2023-07-13T10:47:06;36.40;35.00
12704;DHT22;6416;52.182;7.650;2023-07-13T10:49:33;36.40;35.00
12704;DHT22;6416;52.182;7.650;2023-07-13T10:51:59;36.60;35.50
12704;DHT22;6416;52.182;7.650;2023-07-13T10:54:32;36.70;35.20
12704;DHT22;6416;52.182;7.650;2023-07-13T10:57:18;36.90;35.00
12704;DHT22;6416;52.182;7.650;2023-07-13T11:02:28;37.20;34.00
12704;DHT22;6416;52.182;7.650;2023-07-13T11:04:55;37.10;33.20
12704;DHT22;6416;52.182;7.650;2023-07-13T11:09:53;36.90;32.80
12704;DHT22;6416;52.182;7.650;2023-07-13T11:17:35;37.00;34.00
12704;DHT22;6416;52.182;7.650;2023-07-13T11:22:45;37.20;32.80
12704;DHT22;6416;52.182;7.650;2023-07-13T11:27:50;37.20;32.00
12704;DHT22;6416;52.182;7.650;2023-07-13T11:30:39;37.10;32.60
12704;DHT22;6416;52.182;7.650;2023-07-13T11:38:22;36.70;31.80
12704;DHT22;6416;52.182;7.650;2023-07-13T11:40:51;36.70;32.50
12704;DHT22;6416;52.182;7.650;2023-07-13T11:43:18;36.80;33.20
12704;DHT22;6416;52.182;7.650;2023-07-13T11:45:44;36.90;33.20
12704;DHT22;6416;52.182;7.650;2023-07-13T11:48:20;37.00;32.80
12704;DHT22;6416;52.182;7.650;2023-07-13T11:51:01;37.00;32.00
12704;DHT22;6416;52.182;7.650;2023-07-13T11:53:30;36.80;31.70
12704;DHT22;6416;52.182;7.650;2023-07-13T11:55:58;36.60;31.90
12704;DHT22;6416;52.182;7.650;2023-07-13T11:58:26;36.40;31.60
12704;DHT22;6416;52.182;7.650;2023-07-13T12:00:52;36.10;31.20
12704;DHT22;6416;52.182;7.650;2023-07-13T12:03:20;35.90;31.10
12704;DHT22;6416;52.182;7.650;2023-07-13T12:05:57;35.50;31.00
12704;DHT22;6416;52.182;7.650;2023-07-13T12:08:23;35.20;30.90
12704;DHT22;6416;52.182;7.650;2023-07-13T12:10:56;34.80;31.30
12704;DHT22;6416;52.182;7.650;2023-07-13T12:13:22;34.30;31.70
12704;DHT22;6416;52.182;7.650;2023-07-13T12:15:48;33.90;31.80
12704;DHT22;6416;52.182;7.650;2023-07-13T12:18:17;33.40;32.30
12704;DHT22;6416;52.182;7.650;2023-07-13T12:20:44;33.00;33.10
12704;DHT22;6416;52.182;7.650;2023-07-13T12:23:36;32.60;34.20
12704;DHT22;6416;52.182;7.650;2023-07-13T12:26:03;32.20;35.90
12704;DHT22;6416;52.182;7.650;2023-07-13T12:28:46;31.70;36.30
12704;DHT22;6416;52.182;7.650;2023-07-13T12:31:35;31.30;37.60
12704;DHT22;6416;52.182;7.650;2023-07-13T12:34:10;30.90;38.50
12704;DHT22;6416;52.182;7.650;2023-07-13T12:36:38;30.60;39.40
12704;DHT22;6416;52.182;7.650;2023-07-13T12:41:49;30.50;41.90
12704;DHT22;6416;52.182;7.650;2023-07-13T12:44:18;30.70;41.70
12704;DHT22;6416;52.182;7.650;2023-07-13T12:47:09;31.00;42.20
12704;DHT22;6416;52.182;7.650;2023-07-13T12:49:41;31.40;42.20
12704;DHT22;6416;52.182;7.650;2023-07-13T12:52:15;31.70;42.20
12704;DHT22;6416;52.182;7.650;2023-07-13T12:54:41;32.00;41.60
12704;DHT22;6416;52.182;7.650;2023-07-13T12:57:14;32.30;41.40
12704;DHT22;6416;52.182;7.650;2023-07-13T12:59:41;32.50;40.70
12704;DHT22;6416;52.182;7.650;2023-07-13T13:02:26;32.70;40.30
12704;DHT22;6416;52.182;7.650;2023-07-13T13:04:53;32.80;40.60
12704;DHT22;6416;52.182;7.650;2023-07-13T13:07:19;32.80;39.50
12704;DHT22;6416;52.182;7.650;2023-07-13T13:09:45;32.80;39.50
12704;DHT22;6416;52.182;7.650;2023-07-13T13:12:10;32.70;39.20
12704;DHT22;6416;52.182;7.650;2023-07-13T13:14:36;32.60;39.40
12704;DHT22;6416;52.182;7.650;2023-07-13T13:17:02;32.50;40.20
12704;DHT22;6416;52.182;7.650;2023-07-13T13:19:28;32.40;39.80
12704;DHT22;6416;52.182;7.650;2023-07-13T13:21:55;32.20;39.70
12704;DHT22;6416;52.182;7.650;2023-07-13T13:24:24;32.10;39.90
12704;DHT22;6416;52.182;7.650;2023-07-13T13:26:51;31.90;40.00
12704;DHT22;6416;52.182;7.650;2023-07-13T13:29:19;31.70;39.80
12704;DHT22;6416;52.182;7.650;2023-07-13T13:31:45;31.50;40.00
12704;DHT22;6416;52.182;7.650;2023-07-13T13:34:14;31.20;40.20
12704;DHT22;6416;52.182;7.650;2023-07-13T13:36:41;31.00;40.70
12704;DHT22;6416;52.182;7.650;2023-07-13T13:39:27;30.70;40.80
12704;DHT22;6416;52.182;7.650;2023-07-13T13:41:54;30.60;41.60
12704;DHT22;6416;52.182;7.650;2023-07-13T13:44:21;30.40;41.30
12704;DHT22;6416;52.182;7.650;2023-07-13T13:46:49;30.20;41.40
12704;DHT22;6416;52.182;7.650;2023-07-13T13:49:26;30.10;41.70
12704;DHT22;6416;52.182;7.650;2023-07-13T13:51:53;29.90;42.10
12704;DHT22;6416;52.182;7.650;2023-07-13T13:54:20;29.80;42.00
12704;DHT22;6416;52.182;7.650;2023-07-13T13:56:48;29.70;42.20
12704;DHT22;6416;52.182;7.650;2023-07-13T13:59:14;29.60;42.20
12704;DHT22;6416;52.182;7.650;2023-07-13T14:01:42;29.60;42.30
12704;DHT22;6416;52.182;7.650;2023-07-13T14:04:20;29.50;42.40
12704;DHT22;6416;52.182;7.650;2023-07-13T14:06:46;29.40;42.70
12704;DHT22;6416;52.182;7.650;2023-07-13T14:09:15;29.30;42.40
12704;DHT22;6416;52.182;7.650;2023-07-13T14:11:42;29.20;42.70
12704;DHT22;6416;52.182;7.650;2023-07-13T14:14:14;29.10;42.80
12704;DHT22;6416;52.182;7.650;2023-07-13T14:16:41;29.00;43.10
12704;DHT22;6416;52.182;7.650;2023-07-13T14:19:10;29.00;43.70
12704;DHT22;6416;52.182;7.650;2023-07-13T14:21:36;28.90;43.20
12704;DHT22;6416;52.182;7.650;2023-07-13T14:24:02;28.80;43.30
12704;DHT22;6416;52.182;7.650;2023-07-13T14:26:29;28.70;43.50
12704;DHT22;6416;52.182;7.650;2023-07-13T14:28:57;28.70;43.80
12704;DHT22;6416;52.182;7.650;2023-07-13T14:31:24;28.50;43.80
12704;DHT22;6416;52.182;7.650;2023-07-13T14:33:50;28.50;43.90
12704;DHT22;6416;52.182;7.650;2023-07-13T14:38:44;28.40;44.20
12704;DHT22;6416;52.182;7.650;2023-07-13T14:41:09;28.30;44.20
12704;DHT22;6416;52.182;7.650;2023-07-13T14:43:35;28.30;44.20
12704;DHT22;6416;52.182;7.650;2023-07-13T14:46:00;28.20;44.50
12704;DHT22;6416;52.182;7.650;2023-07-13T14:48:26;28.20;44.70
12704;DHT22;6416;52.182;7.650;2023-07-13T14:50:56;28.20;44.80
12704;DHT22;6416;52.182;7.650;2023-07-13T14:53:24;28.20;45.20
12704;DHT22;6416;52.182;7.650;2023-07-13T14:55:49;28.20;45.00
12704;DHT22;6416;52.182;7.650;2023-07-13T14:58:15;28.30;45.10
12704;DHT22;6416;52.182;7.650;2023-07-13T15:00:43;28.30;45.00
12704;DHT22;6416;52.182;7.650;2023-07-13T15:03:22;28.30;44.80
12704;DHT22;6416;52.182;7.650;2023-07-13T15:05:48;28.40;44.80
12704;DHT22;6416;52.182;7.650;2023-07-13T15:08:15;28.40;44.20
12704;DHT22;6416;52.182;7.650;2023-07-13T15:10:40;28.50;44.30
12704;DHT22;6416;52.182;7.650;2023-07-13T15:13:20;28.50;44.30
12704;DHT22;6416;52.182;7.650;2023-07-13T15:15:50;28.60;44.50
12704;DHT22;6416;52.182;7.650;2023-07-13T15:18:18;28.60;44.20
12704;DHT22;6416;52.182;7.650;2023-07-13T15:20:45;28.60;44.00
12704;DHT22;6416;52.182;7.650;2023-07-13T15:23:13;28.60;44.20
12704;DHT22;6416;52.182;7.650;2023-07-13T15:25:40;28.60;44.30
12704;DHT22;6416;52.182;7.650;2023-07-13T15:28:06;28.50;44.20
12704;DHT22;6416;52.182;7.650;2023-07-13T15:30:40;28.50;44.20
12704;DHT22;6416;52.182;7.650;2023-07-13T15:33:13;28.50;44.50
12704;DHT22;6416;52.182;7.650;2023-07-13T15:35:39;28.50;44.70
12704;DHT22;6416;52.182;7.650;2023-07-13T15:38:13;28.50;44.70
12704;DHT22;6416;52.182;7.650;2023-07-13T15:40:40;28.50;44.00
12704;DHT22;6416;52.182;7.650;2023-07-13T15:43:11;28.60;43.10
12704;DHT22;6416;52.182;7.650;2023-07-13T15:45:36;28.50;42.70
12704;DHT22;6416;52.182;7.650;2023-07-13T15:48:02;28.50;42.00
12704;DHT22;6416;52.182;7.650;2023-07-13T15:50:42;28.50;41.70
12704;DHT22;6416;52.182;7.650;2023-07-13T15:53:09;28.40;40.90
12704;DHT22;6416;52.182;7.650;2023-07-13T15:55:38;28.30;41.30
12704;DHT22;6416;52.182;7.650;2023-07-13T15:58:04;28.20;41.30
12704;DHT22;6416;52.182;7.650;2023-07-13T16:00:29;28.20;41.80
12704;DHT22;6416;52.182;7.650;2023-07-13T16:02:54;28.10;42.10
12704;DHT22;6416;52.182;7.650;2023-07-13T16:05:21;28.00;42.30
12704;DHT22;6416;52.182;7.650;2023-07-13T16:07:50;28.00;42.40
12704;DHT22;6416;52.182;7.650;2023-07-13T16:10:17;27.90;42.60
12704;DHT22;6416;52.182;7.650;2023-07-13T16:12:44;27.90;42.50
12704;DHT22;6416;52.182;7.650;2023-07-13T16:15:15;27.90;42.50
12704;DHT22;6416;52.182;7.650;2023-07-13T16:17:41;27.90;42.70
12704;DHT22;6416;52.182;7.650;2023-07-13T16:20:07;27.90;42.70
12704;DHT22;6416;52.182;7.650;2023-07-13T16:22:33;27.90;42.60
12704;DHT22;6416;52.182;7.650;2023-07-13T16:24:58;27.80;42.20
12704;DHT22;6416;52.182;7.650;2023-07-13T16:27:24;27.80;42.30
12704;DHT22;6416;52.182;7.650;2023-07-13T16:29:49;27.70;42.30
12704;DHT22;6416;52.182;7.650;2023-07-13T16:32:15;27.60;42.20
12704;DHT22;6416;52.182;7.650;2023-07-13T16:34:42;27.60;42.20